sensor_id;sensor_type;location;lat;lon;timestamp;P1;durP1;ratioP1;P2;durP2;ratioP2
65053;SDS011;51639;47.828;35.038;2023-12-20T00:10:31;20.53;;;9.13;;
65053;SDS011;51639;47.828;35.038;2023-12-20T00:25:32;17.33;;;8.23;;
65053;SDS011;51639;47.828;35.038;2023-12-20T00:40:34;22.07;;;8.93;;
65053;SDS011;51639;47.828;35.038;2023-12-20T00:55:36;19.20;;;8.27;;
65053;SDS011;51639;47.828;35.038;2023-12-20T01:10:38;23.87;;;10.23;;
65053;SDS011;51639;47.828;35.038;2023-12-20T01:25:40;21.53;;;10.47;;
65053;SDS011;51639;47.828;35.038;2023-12-20T01:40:42;21.77;;;9.70;;
65053;SDS011;51639;47.828;35.038;2023-12-20T01:55:43;20.50;;;9.17;;
65053;SDS011;51639;47.828;35.038;2023-12-20T02:10:45;18.23;;;8.80;;
65053;SDS011;51639;47.828;35.038;2023-12-20T02:25:47;20.07;;;9.60;;
65053;SDS011;51639;47.828;35.038;2023-12-20T02:40:49;20.03;;;8.63;;
65053;SDS011;51639;47.828;35.038;2023-12-20T02:55:51;24.23;;;10.27;;
65053;SDS011;51639;47.828;35.038;2023-12-20T03:10:54;25.37;;;10.83;;
65053;SDS011;51639;47.828;35.038;2023-12-20T03:25:56;18.90;;;10.17;;
65053;SDS011;51639;47.828;35.038;2023-12-20T03:40:58;20.50;;;9.63;;
65053;SDS011;51639;47.828;35.038;2023-12-20T03:56:00;15.60;;;8.73;;
65053;SDS011;51639;47.828;35.038;2023-12-20T04:11:01;19.10;;;9.83;;
65053;SDS011;51639;47.828;35.038;2023-12-20T04:26:03;22.87;;;10.97;;
65053;SDS011;51639;47.828;35.038;2023-12-20T04:41:05;25.10;;;10.77;;
65053;SDS011;51639;47.828;35.038;2023-12-20T04:56:07;25.53;;;12.00;;
65053;SDS011;51639;47.828;35.038;2023-12-20T05:11:10;21.27;;;11.97;;
65053;SDS011;51639;47.828;35.038;2023-12-20T05:26:14;20.47;;;8.50;;
65053;SDS011;51639;47.828;35.038;2023-12-20T05:41:16;23.40;;;10.57;;
65053;SDS011;51639;47.828;35.038;2023-12-20T05:56:18;21.87;;;10.43;;
65053;SDS011;51639;47.828;35.038;2023-12-20T06:11:20;19.83;;;10.20;;
65053;SDS011;51639;47.828;35.038;2023-12-20T06:26:21;19.03;;;9.30;;
65053;SDS011;51639;47.828;35.038;2023-12-20T06:41:23;22.43;;;8.97;;
65053;SDS011;51639;47.828;35.038;2023-12-20T06:56:28;19.57;;;9.37;;
65053;SDS011;51639;47.828;35.038;2023-12-20T07:11:30;19.77;;;10.03;;
65053;SDS011;51639;47.828;35.038;2023-12-20T07:26:32;18.37;;;9.57;;
65053;SDS011;51639;47.828;35.038;2023-12-20T07:41:34;21.50;;;9.80;;
65053;SDS011;51639;47.828;35.038;2023-12-20T07:56:36;19.00;;;9.30;;
65053;SDS011;51639;47.828;35.038;2023-12-20T08:11:38;14.83;;;7.90;;
65053;SDS011;51639;47.828;35.038;2023-12-20T08:26:39;20.13;;;9.33;;
65053;SDS011;51639;47.828;35.038;2023-12-20T08:41:41;16.17;;;8.00;;
65053;SDS011;51639;47.828;35.038;2023-12-20T08:56:43;13.17;;;7.27;;
65053;SDS011;51639;47.828;35.038;2023-12-20T09:11:45;13.20;;;7.30;;
65053;SDS011;51639;47.828;35.038;2023-12-20T09:26:53;13.90;;;7.13;;
65053;SDS011;51639;47.828;35.038;2023-12-20T09:57:03;15.03;;;7.10;;
65053;SDS011;51639;47.828;35.038;2023-12-20T10:12:05;10.27;;;6.10;;
65053;SDS011;51639;47.828;35.038;2023-12-20T10:27:10;13.73;;;7.07;;
65053;SDS011;51639;47.828;35.038;2023-12-20T10:42:13;11.93;;;5.90;;
65053;SDS011;51639;47.828;35.038;2023-12-20T10:57:16;14.17;;;7.33;;
65053;SDS011;51639;47.828;35.038;2023-12-20T11:12:26;8.60;;;5.17;;
65053;SDS011;51639;47.828;35.038;2023-12-20T11:27:30;6.93;;;4.27;;
65053;SDS011;51639;47.828;35.038;2023-12-20T11:42:38;8.70;;;5.00;;
65053;SDS011;51639;47.828;35.038;2023-12-20T11:57:41;13.80;;;6.40;;
65053;SDS011;51639;47.828;35.038;2023-12-20T12:12:43;12.43;;;6.47;;
65053;SDS011;51639;47.828;35.038;2023-12-20T12:27:46;8.20;;;5.20;;
65053;SDS011;51639;47.828;35.038;2023-12-20T12:42:48;11.93;;;7.00;;
65053;SDS011;51639;47.828;35.038;2023-12-20T12:57:50;14.53;;;8.53;;
65053;SDS011;51639;47.828;35.038;2023-12-20T13:12:52;17.33;;;9.53;;
65053;SDS011;51639;47.828;35.038;2023-12-20T13:27:54;13.53;;;8.03;;
65053;SDS011;51639;47.828;35.038;2023-12-20T13:42:56;17.47;;;10.37;;
65053;SDS011;51639;47.828;35.038;2023-12-20T13:58:00;14.70;;;8.03;;
65053;SDS011;51639;47.828;35.038;2023-12-20T14:13:03;17.20;;;7.33;;
65053;SDS011;51639;47.828;35.038;2023-12-20T14:28:08;9.63;;;4.80;;
65053;SDS011;51639;47.828;35.038;2023-12-20T14:43:11;9.33;;;5.27;;
65053;SDS011;51639;47.828;35.038;2023-12-20T14:58:13;6.87;;;4.30;;
65053;SDS011;51639;47.828;35.038;2023-12-20T15:13:17;15.40;;;5.30;;
65053;SDS011;51639;47.828;35.038;2023-12-20T15:28:19;10.73;;;5.43;;
65053;SDS011;51639;47.828;35.038;2023-12-20T15:43:21;9.43;;;4.80;;
65053;SDS011;51639;47.828;35.038;2023-12-20T15:58:22;7.67;;;4.40;;
65053;SDS011;51639;47.828;35.038;2023-12-20T16:13:24;12.93;;;5.43;;
65053;SDS011;51639;47.828;35.038;2023-12-20T16:28:34;13.10;;;5.17;;
65053;SDS011;51639;47.828;35.038;2023-12-20T16:43:38;7.87;;;4.13;;
65053;SDS011;51639;47.828;35.038;2023-12-20T16:58:40;16.40;;;8.20;;
65053;SDS011;51639;47.828;35.038;2023-12-20T17:13:42;13.90;;;7.40;;
65053;SDS011;51639;47.828;35.038;2023-12-20T17:28:44;16.30;;;5.10;;
65053;SDS011;51639;47.828;35.038;2023-12-20T17:43:46;26.27;;;11.97;;
65053;SDS011;51639;47.828;35.038;2023-12-20T17:58:48;20.83;;;10.97;;
65053;SDS011;51639;47.828;35.038;2023-12-20T18:13:50;11.37;;;5.43;;
65053;SDS011;51639;47.828;35.038;2023-12-20T18:28:52;10.83;;;5.23;;
65053;SDS011;51639;47.828;35.038;2023-12-20T18:43:57;8.07;;;4.87;;
65053;SDS011;51639;47.828;35.038;2023-12-20T18:58:59;9.13;;;4.47;;
65053;SDS011;51639;47.828;35.038;2023-12-20T19:14:01;9.30;;;4.97;;
65053;SDS011;51639;47.828;35.038;2023-12-20T19:29:03;10.03;;;5.10;;
65053;SDS011;51639;47.828;35.038;2023-12-20T19:44:05;18.80;;;8.47;;
65053;SDS011;51639;47.828;35.038;2023-12-20T19:59:08;15.73;;;7.50;;
65053;SDS011;51639;47.828;35.038;2023-12-20T20:14:09;18.83;;;9.47;;
65053;SDS011;51639;47.828;35.038;2023-12-20T20:29:11;12.27;;;7.23;;
65053;SDS011;51639;47.828;35.038;2023-12-20T20:44:14;15.93;;;6.87;;
65053;SDS011;51639;47.828;35.038;2023-12-20T20:59:15;18.43;;;8.53;;
65053;SDS011;51639;47.828;35.038;2023-12-20T21:14:17;16.33;;;7.13;;
65053;SDS011;51639;47.828;35.038;2023-12-20T21:29:19;14.77;;;6.50;;
65053;SDS011;51639;47.828;35.038;2023-12-20T21:44:21;16.33;;;7.60;;
65053;SDS011;51639;47.828;35.038;2023-12-20T21:59:23;9.13;;;5.60;;
65053;SDS011;51639;47.828;35.038;2023-12-20T22:14:26;18.40;;;7.17;;
65053;SDS011;51639;47.828;35.038;2023-12-20T22:29:30;38.40;;;7.97;;
65053;SDS011;51639;47.828;35.038;2023-12-20T22:44:33;16.23;;;7.93;;
65053;SDS011;51639;47.828;35.038;2023-12-20T22:59:34;14.00;;;7.00;;
65053;SDS011;51639;47.828;35.038;2023-12-20T23:14:36;18.73;;;8.13;;
65053;SDS011;51639;47.828;35.038;2023-12-20T23:29:38;23.17;;;9.27;;
65053;SDS011;51639;47.828;35.038;2023-12-20T23:44:40;16.07;;;8.17;;
65053;SDS011;51639;47.828;35.038;2023-12-20T23:59:42;20.90;;;9.77;;
